»·PEaware :: N856CM KSMX-KBFL

N856CM :: KSMX-KBFL

FLIGHT INFORMATION

Flight Status: Arrived
Operator: Privately registered:
United States
More flights under this callsign
Pilot: Jimmy M. (17685)
Aircraft: CESSNA 172 SKYHAWK
(C172)
More flights by this aircraft type
Origin: KSMX Santa Maria Pub/Capt Hancock
United States
Destination: KBFL Meadows
United States
More flights between these airports :: More routes between these airports
Route:
File this flight plan on PilotEdge
Remarks: CAT 5
Altitude:
(Current/Filed)
7,500ft
Speed:
(Current/Filed)
115kts
Departed: 29-Dec-17 09:17 PM
Arrived: 29-Dec-17 10:05 PM
Distance/Time
Traveled:
76nm/0:48
Distance/Time
To Go:
Arrived

Flight Plot

Page will automatically refresh every two minutes.


Map Options




Map Legend


Flown Route
Filed Route
Departure Airport
Arrival Airport
Navaid (VOR, NDB)
Fix

Horizontal Profiles

Position Reports

Time Latitude Longitude Heading Altitude Ground
Speed
29-Dec-17 20:54 34.896802 -120.445898 273 265ft 0kts
29-Dec-17 20:55 34.896802 -120.445898 273 265ft 0kts
29-Dec-17 20:56 34.896802 -120.445898 273 265ft 0kts
29-Dec-17 20:57 34.896802 -120.445898 273 265ft 0kts
29-Dec-17 20:58 34.896802 -120.445898 273 265ft 0kts
29-Dec-17 20:59 34.896802 -120.445898 273 265ft 0kts
29-Dec-17 21:00 34.896802 -120.445898 273 265ft 0kts
29-Dec-17 21:01 34.896802 -120.445898 273 265ft 0kts
29-Dec-17 21:02 34.896802 -120.445898 273 265ft 0kts
29-Dec-17 21:03 34.896802 -120.445898 273 265ft 0kts
29-Dec-17 21:04 34.896802 -120.445898 273 265ft 0kts
29-Dec-17 21:05 34.896802 -120.445898 273 265ft 0kts
29-Dec-17 21:06 34.896802 -120.445898 273 265ft 0kts
29-Dec-17 21:07 34.896802 -120.445898 273 265ft 0kts
29-Dec-17 21:08 34.896802 -120.445898 273 265ft 0kts
29-Dec-17 21:09 34.896802 -120.445898 273 265ft 0kts
29-Dec-17 21:10 34.896802 -120.445898 273 265ft 0kts
29-Dec-17 21:11 34.896802 -120.445898 273 265ft 0kts
29-Dec-17 21:12 34.896802 -120.445898 273 265ft 0kts
29-Dec-17 21:13 34.896802 -120.445898 273 265ft 0kts
29-Dec-17 21:14 34.896802 -120.445898 273 265ft 0kts
29-Dec-17 21:15 34.896802 -120.445898 273 265ft 0kts
29-Dec-17 21:16 34.896802 -120.445898 273 265ft 0kts
29-Dec-17 21:17 34.896802 -120.445898 273 265ft 0kts
29-Dec-17 21:18 34.896802 -120.445898 273 265ft 0kts
29-Dec-17 21:19 34.896345 -120.446186 141 265ft 12kts
29-Dec-17 21:20 34.894443 -120.445049 187 265ft 11kts
29-Dec-17 21:21 34.893151 -120.444956 183 265ft 0kts
29-Dec-17 21:22 34.893151 -120.444956 183 265ft 0kts
29-Dec-17 21:23 34.898156 -120.452719 309 460ft 80kts
29-Dec-17 21:24 34.915715 -120.473894 342 1228ft 107kts
29-Dec-17 21:25 34.940800 -120.456625 54 1918ft 109kts
29-Dec-17 21:26 34.930440 -120.427653 131 2787ft 94kts
29-Dec-17 21:27 34.925611 -120.401784 73 3819ft 85kts
29-Dec-17 21:28 34.933904 -120.374611 69 4697ft 90kts
29-Dec-17 21:29 34.944021 -120.345857 67 5501ft 93kts
29-Dec-17 21:30 34.954724 -120.317301 67 6302ft 92kts
29-Dec-17 21:31 34.964196 -120.292104 67 6506ft 107kts
29-Dec-17 21:32 34.979692 -120.251328 66 6504ft 117kts
29-Dec-17 21:33 34.993562 -120.215214 66 6504ft 117kts
29-Dec-17 21:34 35.005083 -120.185255 67 6504ft 116kts
29-Dec-17 21:35 35.021069 -120.143717 67 6504ft 116kts
29-Dec-17 21:36 35.034720 -120.108223 67 6504ft 115kts
29-Dec-17 21:37 35.048306 -120.072862 67 6504ft 115kts
29-Dec-17 21:38 35.061828 -120.037622 67 6504ft 114kts
29-Dec-17 21:39 35.073073 -120.008284 67 6504ft 114kts
29-Dec-17 21:40 35.086522 -119.973207 67 6542ft 110kts
29-Dec-17 21:41 35.098715 -119.941779 67 7223ft 104kts
29-Dec-17 21:42 35.111596 -119.908068 67 7521ft 121kts
29-Dec-17 21:43 35.125930 -119.870259 67 7516ft 118kts
29-Dec-17 21:44 35.139532 -119.834447 67 7516ft 115kts
29-Dec-17 21:45 35.152982 -119.799105 67 7516ft 114kts
29-Dec-17 21:46 35.166358 -119.763953 67 7516ft 114kts
29-Dec-17 21:47 35.179675 -119.728928 67 7521ft 113kts
29-Dec-17 21:48 35.192956 -119.693945 67 7528ft 113kts
29-Dec-17 21:49 35.206256 -119.658887 67 7536ft 113kts
29-Dec-17 21:50 35.219516 -119.623885 67 7544ft 113kts
29-Dec-17 21:51 35.233032 -119.588832 66 7551ft 114kts
29-Dec-17 21:52 35.246625 -119.553837 67 7557ft 114kts
29-Dec-17 21:53 35.260115 -119.518272 67 7516ft 115kts
29-Dec-17 21:54 35.273586 -119.482504 67 7189ft 118kts
29-Dec-17 21:55 35.287409 -119.445773 67 6386ft 119kts
29-Dec-17 21:56 35.301229 -119.409087 66 5581ft 118kts
29-Dec-17 21:57 35.314961 -119.372608 66 4774ft 117kts
29-Dec-17 21:58 35.328246 -119.337275 66 3991ft 117kts
29-Dec-17 21:59 35.341591 -119.301838 65 3513ft 112kts
29-Dec-17 22:00 35.353742 -119.269510 66 3515ft 97kts
29-Dec-17 22:01 35.364867 -119.239908 66 3515ft 96kts
29-Dec-17 22:02 35.375643 -119.211153 66 3515ft 86kts
29-Dec-17 22:03 35.385570 -119.181491 86 3091ft 106kts
29-Dec-17 22:04 35.383222 -119.144342 94 2294ft 111kts
29-Dec-17 22:05 35.372948 -119.109416 110 1618ft 101kts
29-Dec-17 22:06 35.363078 -119.080159 109 1533ft 89kts
29-Dec-17 22:07 35.374819 -119.055103 46 1373ft 93kts
29-Dec-17 22:08 35.391332 -119.031416 52 1192ft 89kts
29-Dec-17 22:09 35.413460 -119.035080 318 894ft 89kts
29-Dec-17 22:10 35.430518 -119.055775 318 495ft 84kts
29-Dec-17 22:11 35.439171 -119.065165 40 493ft 23kts
29-Dec-17 22:12 35.440174 -119.063452 75 496ft 30kts
29-Dec-17 22:13 35.437543 -119.058372 137 496ft 29kts
29-Dec-17 22:14 35.433814 -119.053948 136 492ft 5kts
29-Dec-17 22:15 35.429255 -119.048466 135 489ft 23kts
29-Dec-17 22:16 35.426811 -119.044512 357 485ft 0kts
29-Dec-17 22:17 35.426535 -119.043435 131 485ft 18kts
29-Dec-17 22:18 35.426076 -119.042881 84 484ft 0kts
29-Dec-17 22:19 35.426076 -119.042881 84 484ft 0kts
29-Dec-17 22:20 35.426076 -119.042881 84 484ft 0kts
29-Dec-17 22:21 35.426076 -119.042881 84 484ft 0kts
29-Dec-17 22:22 35.426076 -119.042881 84 484ft 0kts
29-Dec-17 22:23 35.426076 -119.042881 84 484ft 0kts
29-Dec-17 22:24 35.426076 -119.042881 84 484ft 0kts
29-Dec-17 22:25 35.426076 -119.042881 84 484ft 0kts

Navigation Log

Ident Type
1. KSMX Airport
2. KBFL Airport